PWSweather.com
Personal Weather Stations
Station Observations
WXGLH1124
Southern Oaks, Indianapolis, IN 46217

Southern OaksIndianapolis, IN 46217

Lat: 39.65113, Lon: -86.16866

Elevation: 720

Station Type: Vantage Pro2

High Low Average
Temperature 23.0°F-5.0°C 0.0°F-17.8°C 16.0°F-8.9°C
Dew Point 16.0°F-8.9°C 0.0°F-17.8°C 5.9°F-14.5°C
Winds 16.0 mph 25.7 kmh Calm Calm 4.0 mph WSW6.4 kmh WSW
Wind Gusts 16.0 mph25.7 kmh -- 8.0 mph12.9 kmh
Humidity 77% 0% 64%
Pressure 30.39 in1029.1 mb 0.00 in0.0 mb -
Precipitation 0.00 in0.0 mm - -
Hour Temp Dew Point Humidity Winds Wind Gusts Pressure Precip Precip Rate Daily Precip Total
12:00 AM 20.3°F-6.5°C 14.3°F-9.8°C 77% 2.0 mph NW3.2 kmh NW 10.0 mph16.1 kmh 30.16 in1021.3 mb 0.00 in0.0 mm 0.00 in0.0 mm 0.00 in0.0 mm
12:05 AM 20.1°F-6.6°C 13.8°F-10.1°C 76% 12.0 mph SW19.3 kmh SW 12.0 mph19.3 kmh 30.16 in1021.3 mb 0.00 in0.0 mm 0.00 in0.0 mm 0.00 in0.0 mm
12:10 AM 20.0°F-6.7°C 13.7°F-10.2°C 76% 5.0 mph SSW8.0 kmh SSW 11.0 mph17.7 kmh 30.16 in1021.3 mb 0.00 in0.0 mm 0.00 in0.0 mm 0.00 in0.0 mm
12:15 AM 19.6°F-6.9°C 13.0°F-10.6°C 75% 4.0 mph W6.4 kmh W 15.0 mph24.1 kmh 30.17 in1021.7 mb 0.00 in0.0 mm 0.00 in0.0 mm 0.00 in0.0 mm
12:20 AM 19.4°F-7.0°C 13.1°F-10.5°C 76% 5.0 mph SW8.0 kmh SW 9.0 mph14.5 kmh 30.17 in1021.7 mb 0.00 in0.0 mm 0.00 in0.0 mm 0.00 in0.0 mm
12:25 AM 19.2°F-7.1°C 12.9°F-10.6°C 76% 4.0 mph W6.4 kmh W 14.0 mph22.5 kmh 30.17 in1021.7 mb 0.00 in0.0 mm 0.00 in0.0 mm 0.00 in0.0 mm
12:29 AM 19.0°F-7.2°C 12.7°F-10.7°C 76% 5.0 mph NW8.0 kmh NW 14.0 mph22.5 kmh 30.17 in1021.7 mb 0.00 in0.0 mm 0.00 in0.0 mm 0.00 in0.0 mm
12:35 AM 19.0°F-7.2°C 12.7°F-10.7°C 76% 5.0 mph WSW8.0 kmh WSW 11.0 mph17.7 kmh 30.18 in1022.0 mb 0.00 in0.0 mm 0.00 in0.0 mm 0.00 in0.0 mm
12:40 AM 18.8°F-7.3°C 12.2°F-11.0°C 75% 4.0 mph W6.4 kmh W 10.0 mph16.1 kmh 30.18 in1022.0 mb 0.00 in0.0 mm 0.00 in0.0 mm 0.00 in0.0 mm
12:44 AM 18.7°F-7.4°C 11.8°F-11.2°C 74% 7.0 mph NW11.3 kmh NW 11.0 mph17.7 kmh 30.18 in1022.0 mb 0.00 in0.0 mm 0.00 in0.0 mm 0.00 in0.0 mm
12:50 AM 18.6°F-7.4°C 12.0°F-11.1°C 75% 4.0 mph SW6.4 kmh SW 10.0 mph16.1 kmh 30.18 in1022.0 mb 0.00 in0.0 mm 0.00 in0.0 mm 0.00 in0.0 mm
12:55 AM 18.5°F-7.5°C 11.9°F-11.2°C 75% 6.0 mph NW9.7 kmh NW 10.0 mph16.1 kmh 30.18 in1022.0 mb 0.00 in0.0 mm 0.00 in0.0 mm 0.00 in0.0 mm
01:00 AM 18.2°F-7.7°C 11.6°F-11.3°C 75% 7.0 mph W11.3 kmh W 11.0 mph17.7 kmh 30.19 in1022.4 mb 0.00 in0.0 mm 0.00 in0.0 mm 0.00 in0.0 mm
01:05 AM 18.0°F-7.8°C 11.4°F-11.4°C 75% 5.0 mph NW8.0 kmh NW 9.0 mph14.5 kmh 30.19 in1022.4 mb 0.00 in0.0 mm 0.00 in0.0 mm 0.00 in0.0 mm
01:10 AM 17.8°F-7.9°C 11.2°F-11.6°C 75% 16.0 mph SW25.7 kmh SW 16.0 mph25.7 kmh 30.19 in1022.4 mb 0.00 in0.0 mm 0.00 in0.0 mm 0.00 in0.0 mm
01:15 AM 17.6°F-8.0°C 11.3°F-11.5°C 76% 2.0 mph W3.2 kmh W 12.0 mph19.3 kmh 30.19 in1022.4 mb 0.00 in0.0 mm 0.00 in0.0 mm 0.00 in0.0 mm
01:20 AM 17.3°F-8.2°C 11.1°F-11.6°C 76% 6.0 mph W9.7 kmh W 10.0 mph16.1 kmh 30.20 in1022.7 mb 0.00 in0.0 mm 0.00 in0.0 mm 0.00 in0.0 mm
01:25 AM 17.1°F-8.3°C 10.9°F-11.7°C 76% 8.0 mph WSW12.9 kmh WSW 10.0 mph16.1 kmh 30.21 in1023.0 mb 0.00 in0.0 mm 0.00 in0.0 mm 0.00 in0.0 mm
01:30 AM 16.9°F-8.4°C 10.7°F-11.8°C 76% 8.0 mph SW12.9 kmh SW 9.0 mph14.5 kmh 30.21 in1023.0 mb 0.00 in0.0 mm 0.00 in0.0 mm 0.00 in0.0 mm
01:34 AM 16.6°F-8.6°C 10.1°F-12.2°C 75% 9.0 mph W14.5 kmh W 9.0 mph14.5 kmh 30.21 in1023.0 mb 0.00 in0.0 mm 0.00 in0.0 mm 0.00 in0.0 mm
01:40 AM 16.3°F-8.7°C 9.8°F-12.3°C 75% 5.0 mph WNW8.0 kmh WNW 10.0 mph16.1 kmh 30.22 in1023.4 mb 0.00 in0.0 mm 0.00 in0.0 mm 0.00 in0.0 mm
01:45 AM 16.1°F-8.8°C 9.6°F-12.4°C 75% 6.0 mph W9.7 kmh W 11.0 mph17.7 kmh 30.22 in1023.4 mb 0.00 in0.0 mm 0.00 in0.0 mm 0.00 in0.0 mm
01:49 AM 16.0°F-8.9°C 9.5°F-12.5°C 75% 4.0 mph WNW6.4 kmh WNW 9.0 mph14.5 kmh 30.22 in1023.4 mb 0.00 in0.0 mm 0.00 in0.0 mm 0.00 in0.0 mm
01:55 AM 15.9°F-8.9°C 9.4°F-12.6°C 75% 4.0 mph WNW6.4 kmh WNW 14.0 mph22.5 kmh 30.23 in1023.7 mb 0.00 in0.0 mm 0.00 in0.0 mm 0.00 in0.0 mm
02:00 AM 15.7°F-9.1°C 8.9°F-12.8°C 74% 12.0 mph WSW19.3 kmh WSW 16.0 mph25.7 kmh 30.23 in1023.7 mb 0.00 in0.0 mm 0.00 in0.0 mm 0.00 in0.0 mm
02:05 AM 15.7°F-9.1°C 9.2°F-12.7°C 75% 3.0 mph WSW4.8 kmh WSW 11.0 mph17.7 kmh 30.23 in1023.7 mb 0.00 in0.0 mm 0.00 in0.0 mm 0.00 in0.0 mm
02:09 AM 15.6°F-9.1°C 9.1°F-12.7°C 75% 2.0 mph W3.2 kmh W 10.0 mph16.1 kmh 30.23 in1023.7 mb 0.00 in0.0 mm 0.00 in0.0 mm 0.00 in0.0 mm
02:15 AM 15.3°F-9.3°C 8.5°F-13.1°C 74% 8.0 mph WNW12.9 kmh WNW 15.0 mph24.1 kmh 30.23 in1023.7 mb 0.00 in0.0 mm 0.00 in0.0 mm 0.00 in0.0 mm
02:19 AM 15.2°F-9.3°C 8.7°F-12.9°C 75% 6.0 mph SW9.7 kmh SW 8.0 mph12.9 kmh 30.23 in1023.7 mb 0.00 in0.0 mm 0.00 in0.0 mm 0.00 in0.0 mm
02:25 AM 15.0°F-9.4°C 8.5°F-13.1°C 75% 8.0 mph W12.9 kmh W 11.0 mph17.7 kmh 30.23 in1023.7 mb 0.00 in0.0 mm 0.00 in0.0 mm 0.00 in0.0 mm
02:30 AM 14.8°F-9.6°C 8.3°F-13.2°C 75% 2.0 mph W3.2 kmh W 14.0 mph22.5 kmh 30.24 in1024.0 mb 0.00 in0.0 mm 0.00 in0.0 mm 0.00 in0.0 mm
02:34 AM 14.7°F-9.6°C 7.9°F-13.4°C 74% 3.0 mph WNW4.8 kmh WNW 11.0 mph17.7 kmh 30.24 in1024.0 mb 0.00 in0.0 mm 0.00 in0.0 mm 0.00 in0.0 mm
02:40 AM 14.6°F-9.7°C 7.5°F-13.6°C 73% 2.0 mph WNW3.2 kmh WNW 9.0 mph14.5 kmh 30.24 in1024.0 mb 0.00 in0.0 mm 0.00 in0.0 mm 0.00 in0.0 mm
02:45 AM 14.6°F-9.7°C 7.8°F-13.4°C 74% 5.0 mph NNW8.0 kmh NNW 9.0 mph14.5 kmh 30.24 in1024.0 mb 0.00 in0.0 mm 0.00 in0.0 mm 0.00 in0.0 mm
02:50 AM 14.5°F-9.7°C 7.7°F-13.5°C 74% 8.0 mph NW12.9 kmh NW 12.0 mph19.3 kmh 30.24 in1024.0 mb 0.00 in0.0 mm 0.00 in0.0 mm 0.00 in0.0 mm
02:55 AM 14.4°F-9.8°C 7.3°F-13.7°C 73% 7.0 mph WNW11.3 kmh WNW 10.0 mph16.1 kmh 30.24 in1024.0 mb 0.00 in0.0 mm 0.00 in0.0 mm 0.00 in0.0 mm
02:59 AM 14.2°F-9.9°C 7.5°F-13.6°C 74% 8.0 mph WNW12.9 kmh WNW 12.0 mph19.3 kmh 30.24 in1024.0 mb 0.00 in0.0 mm 0.00 in0.0 mm 0.00 in0.0 mm
03:04 AM 14.0°F-10.0°C 7.3°F-13.7°C 74% 8.0 mph W12.9 kmh W 11.0 mph17.7 kmh 30.24 in1024.0 mb 0.00 in0.0 mm 0.00 in0.0 mm 0.00 in0.0 mm
03:09 AM 13.9°F-10.1°C 7.2°F-13.8°C 74% 2.0 mph WNW3.2 kmh WNW 10.0 mph16.1 kmh 30.24 in1024.0 mb 0.00 in0.0 mm 0.00 in0.0 mm 0.00 in0.0 mm
03:15 AM 13.8°F-10.1°C 7.4°F-13.7°C 75% 1.0 mph SW1.6 kmh SW 6.0 mph9.7 kmh 30.25 in1024.4 mb 0.00 in0.0 mm 0.00 in0.0 mm 0.00 in0.0 mm
03:20 AM 13.9°F-10.1°C 7.5°F-13.6°C 75% 7.0 mph NW11.3 kmh NW 9.0 mph14.5 kmh 30.25 in1024.4 mb 0.00 in0.0 mm 0.00 in0.0 mm 0.00 in0.0 mm
03:25 AM 13.7°F-10.2°C 7.0°F-13.9°C 74% 6.0 mph WNW9.7 kmh WNW 9.0 mph14.5 kmh 30.26 in1024.7 mb 0.00 in0.0 mm 0.00 in0.0 mm 0.00 in0.0 mm
03:29 AM 13.5°F-10.3°C 6.8°F-14.0°C 74% 2.0 mph NW3.2 kmh NW 8.0 mph12.9 kmh 30.26 in1024.7 mb 0.00 in0.0 mm 0.00 in0.0 mm 0.00 in0.0 mm
03:35 AM 13.5°F-10.3°C 6.8°F-14.0°C 74% 3.0 mph WSW4.8 kmh WSW 9.0 mph14.5 kmh 30.26 in1024.7 mb 0.00 in0.0 mm 0.00 in0.0 mm 0.00 in0.0 mm
03:40 AM 13.5°F-10.3°C 6.8°F-14.0°C 74% 1.0 mph WSW1.6 kmh WSW 10.0 mph16.1 kmh 30.26 in1024.7 mb 0.00 in0.0 mm 0.00 in0.0 mm 0.00 in0.0 mm
03:44 AM 13.4°F-10.3°C 7.0°F-13.9°C 75% 2.0 mph NW3.2 kmh NW 7.0 mph11.3 kmh 30.26 in1024.7 mb 0.00 in0.0 mm 0.00 in0.0 mm 0.00 in0.0 mm
03:50 AM 13.2°F-10.4°C 6.5°F-14.2°C 74% 9.0 mph NW14.5 kmh NW 13.0 mph20.9 kmh 30.27 in1025.1 mb 0.00 in0.0 mm 0.00 in0.0 mm 0.00 in0.0 mm
03:55 AM 12.9°F-10.6°C 5.6°F-14.7°C 72% 4.0 mph W6.4 kmh W 8.0 mph12.9 kmh 30.27 in1025.1 mb 0.00 in0.0 mm 0.00 in0.0 mm 0.00 in0.0 mm
04:00 AM 12.7°F-10.7°C 5.4°F-14.8°C 72% 2.0 mph NW3.2 kmh NW 9.0 mph14.5 kmh 30.27 in1025.1 mb 0.00 in0.0 mm 0.00 in0.0 mm 0.00 in0.0 mm
04:05 AM 12.5°F-10.8°C 5.5°F-14.7°C 73% 4.0 mph NW6.4 kmh NW 8.0 mph12.9 kmh 30.27 in1025.1 mb 0.00 in0.0 mm 0.00 in0.0 mm 0.00 in0.0 mm
04:09 AM 12.4°F-10.9°C 5.4°F-14.8°C 73% 5.0 mph NW8.0 kmh NW 8.0 mph12.9 kmh 30.27 in1025.1 mb 0.00 in0.0 mm 0.00 in0.0 mm 0.00 in0.0 mm
04:14 AM 12.2°F-11.0°C 4.9°F-15.1°C 72% 4.0 mph NW6.4 kmh NW 8.0 mph12.9 kmh 30.27 in1025.1 mb 0.00 in0.0 mm 0.00 in0.0 mm 0.00 in0.0 mm
04:20 AM 12.1°F-11.1°C 5.1°F-14.9°C 73% 3.0 mph W4.8 kmh W 9.0 mph14.5 kmh 30.27 in1025.1 mb 0.00 in0.0 mm 0.00 in0.0 mm 0.00 in0.0 mm
04:25 AM 12.1°F-11.1°C 5.4°F-14.8°C 74% 10.0 mph W16.1 kmh W 10.0 mph16.1 kmh 30.28 in1025.4 mb 0.00 in0.0 mm 0.00 in0.0 mm 0.00 in0.0 mm
04:30 AM 11.9°F-11.2°C 4.9°F-15.1°C 73% 6.0 mph W9.7 kmh W 11.0 mph17.7 kmh 30.28 in1025.4 mb 0.00 in0.0 mm 0.00 in0.0 mm 0.00 in0.0 mm
04:35 AM 11.6°F-11.3°C 4.6°F-15.2°C 73% 6.0 mph SW9.7 kmh SW 12.0 mph19.3 kmh 30.28 in1025.4 mb 0.00 in0.0 mm 0.00 in0.0 mm 0.00 in0.0 mm
04:39 AM 11.5°F-11.4°C 4.5°F-15.3°C 73% 4.0 mph WNW6.4 kmh WNW 9.0 mph14.5 kmh 30.29 in1025.7 mb 0.00 in0.0 mm 0.00 in0.0 mm 0.00 in0.0 mm
04:44 AM 11.3°F-11.5°C 4.4°F-15.3°C 73% 3.0 mph W4.8 kmh W 10.0 mph16.1 kmh 30.28 in1025.4 mb 0.00 in0.0 mm 0.00 in0.0 mm 0.00 in0.0 mm
04:49 AM 11.3°F-11.5°C 4.4°F-15.3°C 73% 3.0 mph W4.8 kmh W 8.0 mph12.9 kmh 30.29 in1025.7 mb 0.00 in0.0 mm 0.00 in0.0 mm 0.00 in0.0 mm
04:55 AM 11.2°F-11.6°C 4.5°F-15.3°C 74% 2.0 mph WNW3.2 kmh WNW 8.0 mph12.9 kmh 30.29 in1025.7 mb 0.00 in0.0 mm 0.00 in0.0 mm 0.00 in0.0 mm
05:00 AM 11.2°F-11.6°C 4.5°F-15.3°C 74% 8.0 mph WNW12.9 kmh WNW 9.0 mph14.5 kmh 30.29 in1025.7 mb 0.00 in0.0 mm 0.00 in0.0 mm 0.00 in0.0 mm
05:05 AM 11.1°F-11.6°C 4.7°F-15.2°C 75% 2.0 mph W3.2 kmh W 7.0 mph11.3 kmh 30.29 in1025.7 mb 0.00 in0.0 mm 0.00 in0.0 mm 0.00 in0.0 mm
05:10 AM 11.0°F-11.7°C 4.6°F-15.2°C 75% 3.0 mph W4.8 kmh W 7.0 mph11.3 kmh 30.29 in1025.7 mb 0.00 in0.0 mm 0.00 in0.0 mm 0.00 in0.0 mm
05:15 AM 10.9°F-11.7°C 4.8°F-15.1°C 76% 4.0 mph WSW6.4 kmh WSW 13.0 mph20.9 kmh 30.29 in1025.7 mb 0.00 in0.0 mm 0.00 in0.0 mm 0.00 in0.0 mm
05:20 AM 10.8°F-11.8°C 4.7°F-15.2°C 76% 5.0 mph WNW8.0 kmh WNW 10.0 mph16.1 kmh 30.29 in1025.7 mb 0.00 in0.0 mm 0.00 in0.0 mm 0.00 in0.0 mm
05:25 AM 10.7°F-11.8°C 4.6°F-15.2°C 76% Calm Calm 7.0 mph11.3 kmh 30.29 in1025.7 mb 0.00 in0.0 mm 0.00 in0.0 mm 0.00 in0.0 mm
05:29 AM 10.8°F-11.8°C 5.0°F-15.0°C 77% 3.0 mph WSW4.8 kmh WSW 11.0 mph17.7 kmh 30.29 in1025.7 mb 0.00 in0.0 mm 0.00 in0.0 mm 0.00 in0.0 mm
05:34 AM 10.6°F-11.9°C 4.5°F-15.3°C 76% 4.0 mph NW6.4 kmh NW 8.0 mph12.9 kmh 30.29 in1025.7 mb 0.00 in0.0 mm 0.00 in0.0 mm 0.00 in0.0 mm
05:40 AM 10.4°F-12.0°C 4.1°F-15.5°C 75% 5.0 mph NW8.0 kmh NW 10.0 mph16.1 kmh 30.29 in1025.7 mb 0.00 in0.0 mm 0.00 in0.0 mm 0.00 in0.0 mm
05:45 AM 10.3°F-12.1°C 4.0°F-15.6°C 75% 5.0 mph WSW8.0 kmh WSW 10.0 mph16.1 kmh 30.29 in1025.7 mb 0.00 in0.0 mm 0.00 in0.0 mm 0.00 in0.0 mm
05:50 AM 10.2°F-12.1°C 3.9°F-15.6°C 75% 2.0 mph WNW3.2 kmh WNW 7.0 mph11.3 kmh 30.29 in1025.7 mb 0.00 in0.0 mm 0.00 in0.0 mm 0.00 in0.0 mm
05:54 AM 10.1°F-12.2°C 3.8°F-15.7°C 75% 4.0 mph WNW6.4 kmh WNW 11.0 mph17.7 kmh 30.30 in1026.1 mb 0.00 in0.0 mm 0.00 in0.0 mm 0.00 in0.0 mm
06:00 AM 10.1°F-12.2°C 3.8°F-15.7°C 75% 4.0 mph NW6.4 kmh NW 9.0 mph14.5 kmh 30.30 in1026.1 mb 0.00 in0.0 mm 0.00 in0.0 mm 0.00 in0.0 mm
06:04 AM 10.0°F-12.2°C 3.4°F-15.9°C 74% 3.0 mph NW4.8 kmh NW 9.0 mph14.5 kmh 30.30 in1026.1 mb 0.00 in0.0 mm 0.00 in0.0 mm 0.00 in0.0 mm
06:10 AM 10.1°F-12.2°C 3.8°F-15.7°C 75% 10.0 mph NW16.1 kmh NW 10.0 mph16.1 kmh 30.30 in1026.1 mb 0.00 in0.0 mm 0.00 in0.0 mm 0.00 in0.0 mm
06:15 AM 10.0°F-12.2°C 3.7°F-15.7°C 75% 2.0 mph NW3.2 kmh NW 7.0 mph11.3 kmh 30.29 in1025.7 mb 0.00 in0.0 mm 0.00 in0.0 mm 0.00 in0.0 mm
06:20 AM 9.8°F-12.3°C 3.5°F-15.8°C 75% 7.0 mph WSW11.3 kmh WSW 11.0 mph17.7 kmh 30.30 in1026.1 mb 0.00 in0.0 mm 0.00 in0.0 mm 0.00 in0.0 mm
06:25 AM 9.7°F-12.4°C 3.4°F-15.9°C 75% 3.0 mph WSW4.8 kmh WSW 11.0 mph17.7 kmh 30.30 in1026.1 mb 0.00 in0.0 mm 0.00 in0.0 mm 0.00 in0.0 mm
06:30 AM 9.6°F-12.4°C 3.3°F-15.9°C 75% 5.0 mph WNW8.0 kmh WNW 10.0 mph16.1 kmh 30.30 in1026.1 mb 0.00 in0.0 mm 0.00 in0.0 mm 0.00 in0.0 mm
06:35 AM 9.5°F-12.5°C 3.2°F-16.0°C 75% 3.0 mph W4.8 kmh W 7.0 mph11.3 kmh 30.30 in1026.1 mb 0.00 in0.0 mm 0.00 in0.0 mm 0.00 in0.0 mm
06:39 AM 9.5°F-12.5°C 3.2°F-16.0°C 75% 1.0 mph WSW1.6 kmh WSW 9.0 mph14.5 kmh 30.30 in1026.1 mb 0.00 in0.0 mm 0.00 in0.0 mm 0.00 in0.0 mm
06:45 AM 9.4°F-12.6°C 3.1°F-16.1°C 75% 3.0 mph WNW4.8 kmh WNW 9.0 mph14.5 kmh 30.30 in1026.1 mb 0.00 in0.0 mm 0.00 in0.0 mm 0.00 in0.0 mm
06:50 AM 9.3°F-12.6°C 3.0°F-16.1°C 75% 3.0 mph WNW4.8 kmh WNW 10.0 mph16.1 kmh 30.30 in1026.1 mb 0.00 in0.0 mm 0.00 in0.0 mm 0.00 in0.0 mm
06:55 AM 9.3°F-12.6°C 3.0°F-16.1°C 75% 7.0 mph WSW11.3 kmh WSW 8.0 mph12.9 kmh 30.31 in1026.4 mb 0.00 in0.0 mm 0.00 in0.0 mm 0.00 in0.0 mm
07:00 AM 9.2°F-12.7°C 2.9°F-16.2°C 75% 3.0 mph W4.8 kmh W 10.0 mph16.1 kmh 30.31 in1026.4 mb 0.00 in0.0 mm 0.00 in0.0 mm 0.00 in0.0 mm
07:05 AM 9.1°F-12.7°C 2.8°F-16.2°C 75% 1.0 mph SW1.6 kmh SW 11.0 mph17.7 kmh 30.31 in1026.4 mb 0.00 in0.0 mm 0.00 in0.0 mm 0.00 in0.0 mm
07:10 AM 9.1°F-12.7°C 2.8°F-16.2°C 75% 2.0 mph NW3.2 kmh NW 7.0 mph11.3 kmh 30.31 in1026.4 mb 0.00 in0.0 mm 0.00 in0.0 mm 0.00 in0.0 mm
07:15 AM 9.0°F-12.8°C 2.7°F-16.3°C 75% 2.0 mph SW3.2 kmh SW 5.0 mph8.0 kmh 30.31 in1026.4 mb 0.00 in0.0 mm 0.00 in0.0 mm 0.00 in0.0 mm
07:20 AM 8.9°F-12.8°C 2.6°F-16.3°C 75% 2.0 mph NW3.2 kmh NW 9.0 mph14.5 kmh 30.32 in1026.8 mb 0.00 in0.0 mm 0.00 in0.0 mm 0.00 in0.0 mm
07:25 AM 8.8°F-12.9°C 2.5°F-16.4°C 75% 5.0 mph WSW8.0 kmh WSW 6.0 mph9.7 kmh 30.31 in1026.4 mb 0.00 in0.0 mm 0.00 in0.0 mm 0.00 in0.0 mm
07:30 AM 8.7°F-12.9°C 2.4°F-16.4°C 75% 9.0 mph W14.5 kmh W 10.0 mph16.1 kmh 30.31 in1026.4 mb 0.00 in0.0 mm 0.00 in0.0 mm 0.00 in0.0 mm
07:35 AM 8.6°F-13.0°C 2.3°F-16.5°C 75% 7.0 mph NW11.3 kmh NW 9.0 mph14.5 kmh 30.32 in1026.8 mb 0.00 in0.0 mm 0.00 in0.0 mm 0.00 in0.0 mm
07:40 AM 8.6°F-13.0°C 2.3°F-16.5°C 75% 3.0 mph WNW4.8 kmh WNW 8.0 mph12.9 kmh 30.32 in1026.8 mb 0.00 in0.0 mm 0.00 in0.0 mm 0.00 in0.0 mm
07:45 AM 8.5°F-13.1°C 1.9°F-16.7°C 74% 10.0 mph W16.1 kmh W 10.0 mph16.1 kmh 30.33 in1027.1 mb 0.00 in0.0 mm 0.00 in0.0 mm 0.00 in0.0 mm
07:50 AM 8.4°F-13.1°C 1.8°F-16.8°C 74% 5.0 mph SW8.0 kmh SW 8.0 mph12.9 kmh 30.33 in1027.1 mb 0.00 in0.0 mm 0.00 in0.0 mm 0.00 in0.0 mm
07:55 AM 8.3°F-13.2°C 1.7°F-16.8°C 74% 4.0 mph W6.4 kmh W 6.0 mph9.7 kmh 30.32 in1026.8 mb 0.00 in0.0 mm 0.00 in0.0 mm 0.00 in0.0 mm
08:00 AM 8.2°F-13.2°C 1.6°F-16.9°C 74% 5.0 mph WSW8.0 kmh WSW 13.0 mph20.9 kmh 30.33 in1027.1 mb 0.00 in0.0 mm 0.00 in0.0 mm 0.00 in0.0 mm
08:04 AM 8.2°F-13.2°C 1.6°F-16.9°C 74% 3.0 mph WNW4.8 kmh WNW 7.0 mph11.3 kmh 30.33 in1027.1 mb 0.00 in0.0 mm 0.00 in0.0 mm 0.00 in0.0 mm
08:10 AM 8.1°F-13.3°C 1.5°F-16.9°C 74% 2.0 mph W3.2 kmh W 6.0 mph9.7 kmh 30.33 in1027.1 mb 0.00 in0.0 mm 0.00 in0.0 mm 0.00 in0.0 mm
08:15 AM 8.0°F-13.3°C 1.5°F-16.9°C 74% 3.0 mph WSW4.8 kmh WSW 4.0 mph6.4 kmh 30.33 in1027.1 mb 0.00 in0.0 mm 0.00 in0.0 mm 0.00 in0.0 mm
08:20 AM 7.9°F-13.4°C 1.4°F-17.0°C 74% 3.0 mph WNW4.8 kmh WNW 8.0 mph12.9 kmh 30.33 in1027.1 mb 0.00 in0.0 mm 0.00 in0.0 mm 0.00 in0.0 mm
08:25 AM 7.8°F-13.4°C 1.3°F-17.1°C 74% 4.0 mph WSW6.4 kmh WSW 7.0 mph11.3 kmh 30.34 in1027.4 mb 0.00 in0.0 mm 0.00 in0.0 mm 0.00 in0.0 mm
08:30 AM 7.8°F-13.4°C 1.3°F-17.1°C 74% 3.0 mph NW4.8 kmh NW 8.0 mph12.9 kmh 30.34 in1027.4 mb 0.00 in0.0 mm 0.00 in0.0 mm 0.00 in0.0 mm
08:35 AM 7.7°F-13.5°C 1.2°F-17.1°C 74% 4.0 mph WNW6.4 kmh WNW 8.0 mph12.9 kmh 30.34 in1027.4 mb 0.00 in0.0 mm 0.00 in0.0 mm 0.00 in0.0 mm
08:40 AM 7.8°F-13.4°C 1.3°F-17.1°C 74% 5.0 mph WSW8.0 kmh WSW 6.0 mph9.7 kmh 30.34 in1027.4 mb 0.00 in0.0 mm 0.00 in0.0 mm 0.00 in0.0 mm
08:45 AM 7.8°F-13.4°C 1.8°F-16.8°C 76% 5.0 mph WNW8.0 kmh WNW 7.0 mph11.3 kmh 30.34 in1027.4 mb 0.00 in0.0 mm 0.00 in0.0 mm 0.00 in0.0 mm
08:50 AM 7.7°F-13.5°C 1.4°F-17.0°C 75% 2.0 mph W3.2 kmh W 6.0 mph9.7 kmh 30.34 in1027.4 mb 0.00 in0.0 mm 0.00 in0.0 mm 0.00 in0.0 mm
08:55 AM 7.7°F-13.5°C 1.4°F-17.0°C 75% 1.0 mph WNW1.6 kmh WNW 6.0 mph9.7 kmh 30.34 in1027.4 mb 0.00 in0.0 mm 0.00 in0.0 mm 0.00 in0.0 mm
09:00 AM 7.7°F-13.5°C 1.7°F-16.8°C 76% 2.0 mph SW3.2 kmh SW 6.0 mph9.7 kmh 30.34 in1027.4 mb 0.00 in0.0 mm 0.00 in0.0 mm 0.00 in0.0 mm
09:05 AM 7.7°F-13.5°C 2.0°F-16.7°C 77% 1.0 mph WSW1.6 kmh WSW 6.0 mph9.7 kmh 30.34 in1027.4 mb 0.00 in0.0 mm 0.00 in0.0 mm 0.00 in0.0 mm
09:10 AM 7.7°F-13.5°C 2.0°F-16.7°C 77% Calm Calm 4.0 mph6.4 kmh 30.35 in1027.8 mb 0.00 in0.0 mm 0.00 in0.0 mm 0.00 in0.0 mm
09:14 AM 7.7°F-13.5°C 2.0°F-16.7°C 77% 1.0 mph WSW1.6 kmh WSW 8.0 mph12.9 kmh 30.35 in1027.8 mb 0.00 in0.0 mm 0.00 in0.0 mm 0.00 in0.0 mm
09:20 AM 7.6°F-13.6°C 1.9°F-16.7°C 77% 2.0 mph WNW3.2 kmh WNW 4.0 mph6.4 kmh 30.35 in1027.8 mb 0.00 in0.0 mm 0.00 in0.0 mm 0.00 in0.0 mm
09:25 AM 7.6°F-13.6°C 1.6°F-16.9°C 76% 3.0 mph NW4.8 kmh NW 7.0 mph11.3 kmh 30.36 in1028.1 mb 0.00 in0.0 mm 0.00 in0.0 mm 0.00 in0.0 mm
09:30 AM 7.6°F-13.6°C 1.6°F-16.9°C 76% 6.0 mph W9.7 kmh W 7.0 mph11.3 kmh 30.36 in1028.1 mb 0.00 in0.0 mm 0.00 in0.0 mm 0.00 in0.0 mm
09:35 AM 7.6°F-13.6°C 1.6°F-16.9°C 76% 2.0 mph NW3.2 kmh NW 7.0 mph11.3 kmh 30.36 in1028.1 mb 0.00 in0.0 mm 0.00 in0.0 mm 0.00 in0.0 mm
09:40 AM 7.7°F-13.5°C 1.7°F-16.8°C 76% 1.0 mph W1.6 kmh W 4.0 mph6.4 kmh 30.36 in1028.1 mb 0.00 in0.0 mm 0.00 in0.0 mm 0.00 in0.0 mm
09:45 AM 7.8°F-13.4°C 2.1°F-16.6°C 77% 2.0 mph W3.2 kmh W 4.0 mph6.4 kmh 30.36 in1028.1 mb 0.00 in0.0 mm 0.00 in0.0 mm 0.00 in0.0 mm
09:50 AM 7.9°F-13.4°C 1.9°F-16.7°C 76% 1.0 mph SW1.6 kmh SW 8.0 mph12.9 kmh 30.36 in1028.1 mb 0.00 in0.0 mm 0.00 in0.0 mm 0.00 in0.0 mm
09:55 AM 8.0°F-13.3°C 1.7°F-16.8°C 75% 3.0 mph SW4.8 kmh SW 6.0 mph9.7 kmh 30.36 in1028.1 mb 0.00 in0.0 mm 0.00 in0.0 mm 0.00 in0.0 mm
10:00 AM 8.2°F-13.2°C 1.9°F-16.7°C 75% 8.0 mph NW12.9 kmh NW 8.0 mph12.9 kmh 30.36 in1028.1 mb 0.00 in0.0 mm 0.00 in0.0 mm 0.00 in0.0 mm
10:05 AM 8.1°F-13.3°C 1.5°F-16.9°C 74% 2.0 mph W3.2 kmh W 9.0 mph14.5 kmh 30.36 in1028.1 mb 0.00 in0.0 mm 0.00 in0.0 mm 0.00 in0.0 mm
10:10 AM 8.3°F-13.2°C 1.7°F-16.8°C 74% 3.0 mph WSW4.8 kmh WSW 9.0 mph14.5 kmh 30.37 in1028.4 mb 0.00 in0.0 mm 0.00 in0.0 mm 0.00 in0.0 mm
10:15 AM 8.3°F-13.2°C 1.2°F-17.1°C 72% 2.0 mph SW3.2 kmh SW 10.0 mph16.1 kmh 30.37 in1028.4 mb 0.00 in0.0 mm 0.00 in0.0 mm 0.00 in0.0 mm
10:20 AM 8.5°F-13.1°C 1.3°F-17.1°C 72% 4.0 mph WNW6.4 kmh WNW 13.0 mph20.9 kmh 30.37 in1028.4 mb 0.00 in0.0 mm 0.00 in0.0 mm 0.00 in0.0 mm
10:25 AM 8.6°F-13.0°C 0.8°F-17.3°C 70% 1.0 mph W1.6 kmh W 8.0 mph12.9 kmh 30.37 in1028.4 mb 0.00 in0.0 mm 0.00 in0.0 mm 0.00 in0.0 mm
10:30 AM 8.7°F-12.9°C 0.6°F-17.4°C 69% 3.0 mph WSW4.8 kmh WSW 8.0 mph12.9 kmh 30.37 in1028.4 mb 0.00 in0.0 mm 0.00 in0.0 mm 0.00 in0.0 mm
10:35 AM 8.8°F-12.9°C 0.7°F-17.4°C 69% 2.0 mph WSW3.2 kmh WSW 9.0 mph14.5 kmh 30.37 in1028.4 mb 0.00 in0.0 mm 0.00 in0.0 mm 0.00 in0.0 mm
10:40 AM 8.9°F-12.8°C 0.8°F-17.3°C 69% 2.0 mph SW3.2 kmh SW 10.0 mph16.1 kmh 30.37 in1028.4 mb 0.00 in0.0 mm 0.00 in0.0 mm 0.00 in0.0 mm
10:45 AM 9.1°F-12.7°C 1.0°F-17.2°C 69% 2.0 mph WSW3.2 kmh WSW 9.0 mph14.5 kmh 30.37 in1028.4 mb 0.00 in0.0 mm 0.00 in0.0 mm 0.00 in0.0 mm
10:50 AM 9.2°F-12.7°C 0.8°F-17.3°C 68% 7.0 mph WNW11.3 kmh WNW 7.0 mph11.3 kmh 30.37 in1028.4 mb 0.00 in0.0 mm 0.00 in0.0 mm 0.00 in0.0 mm
10:55 AM 9.4°F-12.6°C 1.0°F-17.2°C 68% Calm Calm 9.0 mph14.5 kmh 30.36 in1028.1 mb 0.00 in0.0 mm 0.00 in0.0 mm 0.00 in0.0 mm
11:00 AM 9.6°F-12.4°C 1.2°F-17.1°C 68% 5.0 mph NW8.0 kmh NW 8.0 mph12.9 kmh 30.36 in1028.1 mb 0.00 in0.0 mm 0.00 in0.0 mm 0.00 in0.0 mm
11:05 AM 9.5°F-12.5°C 0.8°F-17.3°C 67% 2.0 mph NW3.2 kmh NW 5.0 mph8.0 kmh 30.37 in1028.4 mb 0.00 in0.0 mm 0.00 in0.0 mm 0.00 in0.0 mm
11:10 AM 9.9°F-12.3°C 1.8°F-16.8°C 69% 2.0 mph WSW3.2 kmh WSW 7.0 mph11.3 kmh 30.36 in1028.1 mb 0.00 in0.0 mm 0.00 in0.0 mm 0.00 in0.0 mm
11:15 AM 10.2°F-12.1°C 1.8°F-16.8°C 68% 6.0 mph W9.7 kmh W 7.0 mph11.3 kmh 30.37 in1028.4 mb 0.00 in0.0 mm 0.00 in0.0 mm 0.00 in0.0 mm
11:19 AM 10.2°F-12.1°C 1.1°F-17.2°C 66% 3.0 mph W4.8 kmh W 11.0 mph17.7 kmh 30.38 in1028.8 mb 0.00 in0.0 mm 0.00 in0.0 mm 0.00 in0.0 mm
11:24 AM 10.3°F-12.1°C 1.5°F-16.9°C 67% Calm Calm 9.0 mph14.5 kmh 30.38 in1028.8 mb 0.00 in0.0 mm 0.00 in0.0 mm 0.00 in0.0 mm
11:30 AM 10.3°F-12.1°C 1.5°F-16.9°C 67% 5.0 mph SW8.0 kmh SW 10.0 mph16.1 kmh 30.38 in1028.8 mb 0.00 in0.0 mm 0.00 in0.0 mm 0.00 in0.0 mm
11:35 AM 10.4°F-12.0°C 1.3°F-17.1°C 66% 1.0 mph NW1.6 kmh NW 7.0 mph11.3 kmh 30.38 in1028.8 mb 0.00 in0.0 mm 0.00 in0.0 mm 0.00 in0.0 mm
11:40 AM 10.5°F-11.9°C 1.4°F-17.0°C 66% Calm Calm 12.0 mph19.3 kmh 30.38 in1028.8 mb 0.00 in0.0 mm 0.00 in0.0 mm 0.00 in0.0 mm
11:45 AM 11.0°F-11.7°C 2.2°F-16.6°C 67% 8.0 mph NW12.9 kmh NW 10.0 mph16.1 kmh 30.38 in1028.8 mb 0.00 in0.0 mm 0.00 in0.0 mm 0.00 in0.0 mm
11:50 AM 11.3°F-11.5°C 1.8°F-16.8°C 65% 4.0 mph SW6.4 kmh SW 8.0 mph12.9 kmh 30.38 in1028.8 mb 0.00 in0.0 mm 0.00 in0.0 mm 0.00 in0.0 mm
11:55 AM 11.6°F-11.3°C 1.5°F-16.9°C 63% 6.0 mph SW9.7 kmh SW 7.0 mph11.3 kmh 30.38 in1028.8 mb 0.00 in0.0 mm 0.00 in0.0 mm 0.00 in0.0 mm
12:00 PM 11.7°F-11.3°C 1.9°F-16.7°C 64% 9.0 mph SW14.5 kmh SW 10.0 mph16.1 kmh 30.38 in1028.8 mb 0.00 in0.0 mm 0.00 in0.0 mm 0.00 in0.0 mm
12:05 PM 11.7°F-11.3°C 2.2°F-16.6°C 65% 9.0 mph SW14.5 kmh SW 10.0 mph16.1 kmh 30.38 in1028.8 mb 0.00 in0.0 mm 0.00 in0.0 mm 0.00 in0.0 mm
12:10 PM 12.0°F-11.1°C 2.8°F-16.2°C 66% 5.0 mph SW8.0 kmh SW 6.0 mph9.7 kmh 30.38 in1028.8 mb 0.00 in0.0 mm 0.00 in0.0 mm 0.00 in0.0 mm
12:15 PM 12.7°F-10.7°C 3.5°F-15.8°C 66% 1.0 mph W1.6 kmh W 4.0 mph6.4 kmh 30.38 in1028.8 mb 0.00 in0.0 mm 0.00 in0.0 mm 0.00 in0.0 mm
12:20 PM 13.0°F-10.6°C 3.5°F-15.8°C 65% 3.0 mph WSW4.8 kmh WSW 4.0 mph6.4 kmh 30.39 in1029.1 mb 0.00 in0.0 mm 0.00 in0.0 mm 0.00 in0.0 mm
12:25 PM 12.9°F-10.6°C 3.0°F-16.1°C 64% 6.0 mph WSW9.7 kmh WSW 9.0 mph14.5 kmh 30.39 in1029.1 mb 0.00 in0.0 mm 0.00 in0.0 mm 0.00 in0.0 mm
12:30 PM 12.7°F-10.7°C 2.5°F-16.4°C 63% 5.0 mph SW8.0 kmh SW 11.0 mph17.7 kmh 30.39 in1029.1 mb 0.00 in0.0 mm 0.00 in0.0 mm 0.00 in0.0 mm
12:35 PM 12.9°F-10.6°C 2.7°F-16.3°C 63% 4.0 mph W6.4 kmh W 11.0 mph17.7 kmh 30.39 in1029.1 mb 0.00 in0.0 mm 0.00 in0.0 mm 0.00 in0.0 mm
12:39 PM 13.2°F-10.4°C 2.6°F-16.3°C 62% 2.0 mph SW3.2 kmh SW 7.0 mph11.3 kmh 30.39 in1029.1 mb 0.00 in0.0 mm 0.00 in0.0 mm 0.00 in0.0 mm
12:45 PM 13.8°F-10.1°C 2.5°F-16.4°C 60% 2.0 mph WNW3.2 kmh WNW 8.0 mph12.9 kmh 30.39 in1029.1 mb 0.00 in0.0 mm 0.00 in0.0 mm 0.00 in0.0 mm
01:00 PM 0.0°F-17.8°C 0.0°F-17.8°C 0% Calm Calm -- 0.00 in0.0 mb 0.00 in0.0 mm 0.00 in0.0 mm 0.00 in0.0 mm
01:05 PM 0.0°F-17.8°C 0.0°F-17.8°C 0% Calm Calm -- 0.00 in0.0 mb 0.00 in0.0 mm 0.00 in0.0 mm 0.00 in0.0 mm
01:10 PM 14.6°F-9.7°C 3.3°F-15.9°C 60% 7.0 mph SW11.3 kmh SW 10.0 mph16.1 kmh 30.38 in1028.8 mb 0.00 in0.0 mm 0.00 in0.0 mm 0.00 in0.0 mm
01:15 PM 14.8°F-9.6°C 2.7°F-16.3°C 58% 4.0 mph SW6.4 kmh SW 10.0 mph16.1 kmh 30.38 in1028.8 mb 0.00 in0.0 mm 0.00 in0.0 mm 0.00 in0.0 mm
01:20 PM 15.5°F-9.2°C 4.1°F-15.5°C 60% 5.0 mph SW8.0 kmh SW 10.0 mph16.1 kmh 30.37 in1028.4 mb 0.00 in0.0 mm 0.00 in0.0 mm 0.00 in0.0 mm
01:25 PM 16.1°F-8.8°C 3.6°F-15.8°C 57% 2.0 mph W3.2 kmh W 10.0 mph16.1 kmh 30.37 in1028.4 mb 0.00 in0.0 mm 0.00 in0.0 mm 0.00 in0.0 mm
01:30 PM 16.1°F-8.8°C 3.2°F-16.0°C 56% 2.0 mph WNW3.2 kmh WNW 10.0 mph16.1 kmh 30.36 in1028.1 mb 0.00 in0.0 mm 0.00 in0.0 mm 0.00 in0.0 mm
01:35 PM 16.2°F-8.8°C 3.3°F-15.9°C 56% 3.0 mph NW4.8 kmh NW 10.0 mph16.1 kmh 30.36 in1028.1 mb 0.00 in0.0 mm 0.00 in0.0 mm 0.00 in0.0 mm
01:40 PM 16.4°F-8.7°C 3.1°F-16.1°C 55% 3.0 mph W4.8 kmh W 10.0 mph16.1 kmh 30.36 in1028.1 mb 0.00 in0.0 mm 0.00 in0.0 mm 0.00 in0.0 mm
01:45 PM 16.3°F-8.7°C 2.6°F-16.3°C 54% 1.0 mph WSW1.6 kmh WSW 9.0 mph14.5 kmh 30.36 in1028.1 mb 0.00 in0.0 mm 0.00 in0.0 mm 0.00 in0.0 mm
01:50 PM 16.2°F-8.8°C 2.9°F-16.2°C 55% 7.0 mph SW11.3 kmh SW 9.0 mph14.5 kmh 30.36 in1028.1 mb 0.00 in0.0 mm 0.00 in0.0 mm 0.00 in0.0 mm
01:55 PM 16.5°F-8.6°C 3.2°F-16.0°C 55% 7.0 mph WNW11.3 kmh WNW 9.0 mph14.5 kmh 30.36 in1028.1 mb 0.00 in0.0 mm 0.00 in0.0 mm 0.00 in0.0 mm
02:00 PM 16.8°F-8.4°C 3.8°F-15.7°C 56% 7.0 mph SW11.3 kmh SW 8.0 mph12.9 kmh 30.35 in1027.8 mb 0.00 in0.0 mm 0.00 in0.0 mm 0.00 in0.0 mm
02:04 PM 17.1°F-8.3°C 4.1°F-15.5°C 56% 5.0 mph NW8.0 kmh NW 8.0 mph12.9 kmh 30.35 in1027.8 mb 0.00 in0.0 mm 0.00 in0.0 mm 0.00 in0.0 mm
02:10 PM 17.1°F-8.3°C 4.1°F-15.5°C 56% 2.0 mph NW3.2 kmh NW 8.0 mph12.9 kmh 30.35 in1027.8 mb 0.00 in0.0 mm 0.00 in0.0 mm 0.00 in0.0 mm
02:15 PM 17.3°F-8.2°C 4.3°F-15.4°C 56% 5.0 mph SW8.0 kmh SW 8.0 mph12.9 kmh 30.35 in1027.8 mb 0.00 in0.0 mm 0.00 in0.0 mm 0.00 in0.0 mm
02:20 PM 17.8°F-7.9°C 4.8°F-15.1°C 56% 2.0 mph NW3.2 kmh NW 8.0 mph12.9 kmh 30.35 in1027.8 mb 0.00 in0.0 mm 0.00 in0.0 mm 0.00 in0.0 mm
02:25 PM 18.0°F-7.8°C 3.8°F-15.7°C 53% 5.0 mph SSW8.0 kmh SSW 9.0 mph14.5 kmh 30.35 in1027.8 mb 0.00 in0.0 mm 0.00 in0.0 mm 0.00 in0.0 mm
02:29 PM 17.7°F-7.9°C 3.5°F-15.8°C 53% 2.0 mph SW3.2 kmh SW 10.0 mph16.1 kmh 30.35 in1027.8 mb 0.00 in0.0 mm 0.00 in0.0 mm 0.00 in0.0 mm
02:35 PM 18.3°F-7.6°C 5.2°F-14.9°C 56% 5.0 mph NW8.0 kmh NW 8.0 mph12.9 kmh 30.34 in1027.4 mb 0.00 in0.0 mm 0.00 in0.0 mm 0.00 in0.0 mm
02:40 PM 18.3°F-7.6°C 4.5°F-15.3°C 54% 5.0 mph SW8.0 kmh SW 9.0 mph14.5 kmh 30.34 in1027.4 mb 0.00 in0.0 mm 0.00 in0.0 mm 0.00 in0.0 mm
02:45 PM 18.6°F-7.4°C 5.1°F-14.9°C 55% 4.0 mph ESE6.4 kmh ESE 10.0 mph16.1 kmh 30.34 in1027.4 mb 0.00 in0.0 mm 0.00 in0.0 mm 0.00 in0.0 mm
02:50 PM 18.5°F-7.5°C 4.6°F-15.2°C 54% 9.0 mph SW14.5 kmh SW 14.0 mph22.5 kmh 30.34 in1027.4 mb 0.00 in0.0 mm 0.00 in0.0 mm 0.00 in0.0 mm
02:55 PM 18.4°F-7.6°C 5.3°F-14.8°C 56% 5.0 mph SW8.0 kmh SW 5.0 mph8.0 kmh 30.34 in1027.4 mb 0.00 in0.0 mm 0.00 in0.0 mm 0.00 in0.0 mm
03:00 PM 19.1°F-7.2°C 5.6°F-14.7°C 55% 3.0 mph W4.8 kmh W 6.0 mph9.7 kmh 30.33 in1027.1 mb 0.00 in0.0 mm 0.00 in0.0 mm 0.00 in0.0 mm
03:05 PM 19.0°F-7.2°C 5.1°F-14.9°C 54% 1.0 mph W1.6 kmh W 11.0 mph17.7 kmh 30.33 in1027.1 mb 0.00 in0.0 mm 0.00 in0.0 mm 0.00 in0.0 mm
03:10 PM 19.4°F-7.0°C 5.1°F-14.9°C 53% 3.0 mph W4.8 kmh W 9.0 mph14.5 kmh 30.33 in1027.1 mb 0.00 in0.0 mm 0.00 in0.0 mm 0.00 in0.0 mm
03:15 PM 19.2°F-7.1°C 4.9°F-15.1°C 53% 1.0 mph SW1.6 kmh SW 7.0 mph11.3 kmh 30.33 in1027.1 mb 0.00 in0.0 mm 0.00 in0.0 mm 0.00 in0.0 mm
03:20 PM 19.4°F-7.0°C 5.5°F-14.7°C 54% 4.0 mph SW6.4 kmh SW 7.0 mph11.3 kmh 30.32 in1026.8 mb 0.00 in0.0 mm 0.00 in0.0 mm 0.00 in0.0 mm
03:24 PM 19.9°F-6.7°C 5.5°F-14.7°C 53% 6.0 mph SW9.7 kmh SW 10.0 mph16.1 kmh 30.32 in1026.8 mb 0.00 in0.0 mm 0.00 in0.0 mm 0.00 in0.0 mm
03:30 PM 19.9°F-6.7°C 4.7°F-15.2°C 51% 2.0 mph SW3.2 kmh SW 7.0 mph11.3 kmh 30.31 in1026.4 mb 0.00 in0.0 mm 0.00 in0.0 mm 0.00 in0.0 mm
03:35 PM 19.9°F-6.7°C 5.1°F-14.9°C 52% 1.0 mph NW1.6 kmh NW 6.0 mph9.7 kmh 30.31 in1026.4 mb 0.00 in0.0 mm 0.00 in0.0 mm 0.00 in0.0 mm
03:40 PM 19.8°F-6.8°C 4.2°F-15.4°C 50% 9.0 mph WSW14.5 kmh WSW 12.0 mph19.3 kmh 30.31 in1026.4 mb 0.00 in0.0 mm 0.00 in0.0 mm 0.00 in0.0 mm
03:45 PM 19.8°F-6.8°C 3.7°F-15.7°C 49% 4.0 mph SW6.4 kmh SW 8.0 mph12.9 kmh 30.31 in1026.4 mb 0.00 in0.0 mm 0.00 in0.0 mm 0.00 in0.0 mm
03:50 PM 20.2°F-6.6°C 4.6°F-15.2°C 50% 7.0 mph SW11.3 kmh SW 8.0 mph12.9 kmh 30.31 in1026.4 mb 0.00 in0.0 mm 0.00 in0.0 mm 0.00 in0.0 mm
03:55 PM 20.2°F-6.6°C 4.1°F-15.5°C 49% Calm Calm 5.0 mph8.0 kmh 30.31 in1026.4 mb 0.00 in0.0 mm 0.00 in0.0 mm 0.00 in0.0 mm
04:00 PM 20.2°F-6.6°C 3.2°F-16.0°C 47% 10.0 mph SW16.1 kmh SW 12.0 mph19.3 kmh 30.31 in1026.4 mb 0.00 in0.0 mm 0.00 in0.0 mm 0.00 in0.0 mm
04:05 PM 19.9°F-6.7°C 4.3°F-15.4°C 50% 4.0 mph SW6.4 kmh SW 6.0 mph9.7 kmh 30.31 in1026.4 mb 0.00 in0.0 mm 0.00 in0.0 mm 0.00 in0.0 mm
04:10 PM 20.1°F-6.6°C 5.3°F-14.8°C 52% 3.0 mph SW4.8 kmh SW 12.0 mph19.3 kmh 30.31 in1026.4 mb 0.00 in0.0 mm 0.00 in0.0 mm 0.00 in0.0 mm
04:15 PM 20.2°F-6.6°C 5.4°F-14.8°C 52% 3.0 mph SW4.8 kmh SW 6.0 mph9.7 kmh 30.30 in1026.1 mb 0.00 in0.0 mm 0.00 in0.0 mm 0.00 in0.0 mm
04:19 PM 20.3°F-6.5°C 4.6°F-15.2°C 50% 6.0 mph S9.7 kmh S 10.0 mph16.1 kmh 30.30 in1026.1 mb 0.00 in0.0 mm 0.00 in0.0 mm 0.00 in0.0 mm
04:24 PM 20.2°F-6.6°C 5.0°F-15.0°C 51% 5.0 mph SW8.0 kmh SW 10.0 mph16.1 kmh 30.30 in1026.1 mb 0.00 in0.0 mm 0.00 in0.0 mm 0.00 in0.0 mm
04:30 PM 20.5°F-6.4°C 4.8°F-15.1°C 50% 4.0 mph SW6.4 kmh SW 10.0 mph16.1 kmh 30.30 in1026.1 mb 0.00 in0.0 mm 0.00 in0.0 mm 0.00 in0.0 mm
04:35 PM 20.5°F-6.4°C 5.3°F-14.8°C 51% 8.0 mph SW12.9 kmh SW 14.0 mph22.5 kmh 30.30 in1026.1 mb 0.00 in0.0 mm 0.00 in0.0 mm 0.00 in0.0 mm
04:40 PM 20.8°F-6.2°C 6.4°F-14.2°C 53% Calm Calm 9.0 mph14.5 kmh 30.30 in1026.1 mb 0.00 in0.0 mm 0.00 in0.0 mm 0.00 in0.0 mm
04:45 PM 20.9°F-6.2°C 6.1°F-14.4°C 52% 5.0 mph SW8.0 kmh SW 13.0 mph20.9 kmh 30.29 in1025.7 mb 0.00 in0.0 mm 0.00 in0.0 mm 0.00 in0.0 mm
04:50 PM 21.1°F-6.1°C 6.2°F-14.3°C 52% 3.0 mph SW4.8 kmh SW 10.0 mph16.1 kmh 30.29 in1025.7 mb 0.00 in0.0 mm 0.00 in0.0 mm 0.00 in0.0 mm
04:55 PM 21.6°F-5.8°C 6.3°F-14.3°C 51% 1.0 mph S1.6 kmh S 10.0 mph16.1 kmh 30.28 in1025.4 mb 0.00 in0.0 mm 0.00 in0.0 mm 0.00 in0.0 mm
05:00 PM 21.5°F-5.8°C 6.6°F-14.1°C 52% 4.0 mph SSW6.4 kmh SSW 9.0 mph14.5 kmh 30.27 in1025.1 mb 0.00 in0.0 mm 0.00 in0.0 mm 0.00 in0.0 mm
05:05 PM 21.7°F-5.7°C 6.8°F-14.0°C 52% 7.0 mph SW11.3 kmh SW 10.0 mph16.1 kmh 30.27 in1025.1 mb 0.00 in0.0 mm 0.00 in0.0 mm 0.00 in0.0 mm
05:09 PM 21.5°F-5.8°C 5.8°F-14.6°C 50% 11.0 mph SW17.7 kmh SW 15.0 mph24.1 kmh 30.27 in1025.1 mb 0.00 in0.0 mm 0.00 in0.0 mm 0.00 in0.0 mm
05:15 PM 21.3°F-5.9°C 5.6°F-14.7°C 50% 10.0 mph SW16.1 kmh SW 15.0 mph24.1 kmh 30.26 in1024.7 mb 0.00 in0.0 mm 0.00 in0.0 mm 0.00 in0.0 mm
05:20 PM 21.9°F-5.6°C 7.0°F-13.9°C 52% 2.0 mph S3.2 kmh S 7.0 mph11.3 kmh 30.26 in1024.7 mb 0.00 in0.0 mm 0.00 in0.0 mm 0.00 in0.0 mm
05:25 PM 22.0°F-5.6°C 7.1°F-13.8°C 52% 9.0 mph SSW14.5 kmh SSW 11.0 mph17.7 kmh 30.26 in1024.7 mb 0.00 in0.0 mm 0.00 in0.0 mm 0.00 in0.0 mm
05:30 PM 22.0°F-5.6°C 6.7°F-14.1°C 51% 6.0 mph S9.7 kmh S 11.0 mph17.7 kmh 30.26 in1024.7 mb 0.00 in0.0 mm 0.00 in0.0 mm 0.00 in0.0 mm
05:34 PM 22.0°F-5.6°C 6.7°F-14.1°C 51% 5.0 mph SSW8.0 kmh SSW 13.0 mph20.9 kmh 30.27 in1025.1 mb 0.00 in0.0 mm 0.00 in0.0 mm 0.00 in0.0 mm
05:39 PM 22.1°F-5.5°C 6.8°F-14.0°C 51% 6.0 mph SW9.7 kmh SW 13.0 mph20.9 kmh 30.26 in1024.7 mb 0.00 in0.0 mm 0.00 in0.0 mm 0.00 in0.0 mm
05:45 PM 22.0°F-5.6°C 6.7°F-14.1°C 51% 6.0 mph SW9.7 kmh SW 11.0 mph17.7 kmh 30.26 in1024.7 mb 0.00 in0.0 mm 0.00 in0.0 mm 0.00 in0.0 mm
05:49 PM 21.7°F-5.7°C 6.4°F-14.2°C 51% 4.0 mph SW6.4 kmh SW 11.0 mph17.7 kmh 30.26 in1024.7 mb 0.00 in0.0 mm 0.00 in0.0 mm 0.00 in0.0 mm
05:55 PM 21.6°F-5.8°C 6.3°F-14.3°C 51% 7.0 mph SW11.3 kmh SW 13.0 mph20.9 kmh 30.26 in1024.7 mb 0.00 in0.0 mm 0.00 in0.0 mm 0.00 in0.0 mm
05:59 PM 21.8°F-5.7°C 7.7°F-13.5°C 54% 5.0 mph SW8.0 kmh SW 14.0 mph22.5 kmh 30.26 in1024.7 mb 0.00 in0.0 mm 0.00 in0.0 mm 0.00 in0.0 mm
06:04 PM 21.8°F-5.7°C 6.5°F-14.2°C 51% 11.0 mph SW17.7 kmh SW 14.0 mph22.5 kmh 30.26 in1024.7 mb 0.00 in0.0 mm 0.00 in0.0 mm 0.00 in0.0 mm
06:09 PM 21.8°F-5.7°C 6.0°F-14.4°C 50% 6.0 mph SW9.7 kmh SW 8.0 mph12.9 kmh 30.25 in1024.4 mb 0.00 in0.0 mm 0.00 in0.0 mm 0.00 in0.0 mm
06:14 PM 21.8°F-5.7°C 6.5°F-14.2°C 51% 3.0 mph SW4.8 kmh SW 7.0 mph11.3 kmh 30.25 in1024.4 mb 0.00 in0.0 mm 0.00 in0.0 mm 0.00 in0.0 mm
06:20 PM 21.9°F-5.6°C 6.6°F-14.1°C 51% Calm Calm 6.0 mph9.7 kmh 30.25 in1024.4 mb 0.00 in0.0 mm 0.00 in0.0 mm 0.00 in0.0 mm
06:25 PM 22.1°F-5.5°C 6.8°F-14.0°C 51% 5.0 mph SW8.0 kmh SW 9.0 mph14.5 kmh 30.26 in1024.7 mb 0.00 in0.0 mm 0.00 in0.0 mm 0.00 in0.0 mm
06:30 PM 22.0°F-5.6°C 5.8°F-14.6°C 49% 7.0 mph SW11.3 kmh SW 10.0 mph16.1 kmh 30.26 in1024.7 mb 0.00 in0.0 mm 0.00 in0.0 mm 0.00 in0.0 mm
06:35 PM 21.9°F-5.6°C 6.1°F-14.4°C 50% 9.0 mph SW14.5 kmh SW 12.0 mph19.3 kmh 30.26 in1024.7 mb 0.00 in0.0 mm 0.00 in0.0 mm 0.00 in0.0 mm
06:40 PM 21.9°F-5.6°C 5.7°F-14.6°C 49% 6.0 mph SW9.7 kmh SW 14.0 mph22.5 kmh 30.25 in1024.4 mb 0.00 in0.0 mm 0.00 in0.0 mm 0.00 in0.0 mm
06:45 PM 21.9°F-5.6°C 6.1°F-14.4°C 50% 5.0 mph SW8.0 kmh SW 10.0 mph16.1 kmh 30.25 in1024.4 mb 0.00 in0.0 mm 0.00 in0.0 mm 0.00 in0.0 mm
06:50 PM 21.8°F-5.7°C 6.0°F-14.4°C 50% 5.0 mph SW8.0 kmh SW 12.0 mph19.3 kmh 30.25 in1024.4 mb 0.00 in0.0 mm 0.00 in0.0 mm 0.00 in0.0 mm
06:54 PM 21.9°F-5.6°C 6.6°F-14.1°C 51% 8.0 mph WSW12.9 kmh WSW 12.0 mph19.3 kmh 30.26 in1024.7 mb 0.00 in0.0 mm 0.00 in0.0 mm 0.00 in0.0 mm
07:00 PM 21.9°F-5.6°C 6.6°F-14.1°C 51% 4.0 mph SW6.4 kmh SW 9.0 mph14.5 kmh 30.26 in1024.7 mb 0.00 in0.0 mm 0.00 in0.0 mm 0.00 in0.0 mm
07:05 PM 22.0°F-5.6°C 7.1°F-13.8°C 52% 6.0 mph SW9.7 kmh SW 8.0 mph12.9 kmh 30.26 in1024.7 mb 0.00 in0.0 mm 0.00 in0.0 mm 0.00 in0.0 mm
07:09 PM 22.0°F-5.6°C 7.1°F-13.8°C 52% 3.0 mph SW4.8 kmh SW 7.0 mph11.3 kmh 30.25 in1024.4 mb 0.00 in0.0 mm 0.00 in0.0 mm 0.00 in0.0 mm
07:14 PM 22.1°F-5.5°C 7.6°F-13.6°C 53% 9.0 mph SW14.5 kmh SW 10.0 mph16.1 kmh 30.26 in1024.7 mb 0.00 in0.0 mm 0.00 in0.0 mm 0.00 in0.0 mm
07:20 PM 22.0°F-5.6°C 7.1°F-13.8°C 52% 4.0 mph SW6.4 kmh SW 9.0 mph14.5 kmh 30.25 in1024.4 mb 0.00 in0.0 mm 0.00 in0.0 mm 0.00 in0.0 mm
07:25 PM 22.0°F-5.6°C 7.1°F-13.8°C 52% 3.0 mph SW4.8 kmh SW 8.0 mph12.9 kmh 30.25 in1024.4 mb 0.00 in0.0 mm 0.00 in0.0 mm 0.00 in0.0 mm
07:30 PM 22.0°F-5.6°C 7.1°F-13.8°C 52% 4.0 mph SW6.4 kmh SW 10.0 mph16.1 kmh 30.25 in1024.4 mb 0.00 in0.0 mm 0.00 in0.0 mm 0.00 in0.0 mm
07:35 PM 21.9°F-5.6°C 7.4°F-13.7°C 53% Calm Calm 9.0 mph14.5 kmh 30.25 in1024.4 mb 0.00 in0.0 mm 0.00 in0.0 mm 0.00 in0.0 mm
07:40 PM 21.9°F-5.6°C 7.0°F-13.9°C 52% 2.0 mph S3.2 kmh S 8.0 mph12.9 kmh 30.25 in1024.4 mb 0.00 in0.0 mm 0.00 in0.0 mm 0.00 in0.0 mm
07:45 PM 21.9°F-5.6°C 7.4°F-13.7°C 53% 3.0 mph SW4.8 kmh SW 9.0 mph14.5 kmh 30.25 in1024.4 mb 0.00 in0.0 mm 0.00 in0.0 mm 0.00 in0.0 mm
07:50 PM 21.9°F-5.6°C 7.4°F-13.7°C 53% 2.0 mph WSW3.2 kmh WSW 7.0 mph11.3 kmh 30.25 in1024.4 mb 0.00 in0.0 mm 0.00 in0.0 mm 0.00 in0.0 mm
07:55 PM 21.8°F-5.7°C 7.7°F-13.5°C 54% 1.0 mph S1.6 kmh S 5.0 mph8.0 kmh 30.25 in1024.4 mb 0.00 in0.0 mm 0.00 in0.0 mm 0.00 in0.0 mm
08:00 PM 21.8°F-5.7°C 7.7°F-13.5°C 54% 5.0 mph SW8.0 kmh SW 5.0 mph8.0 kmh 30.25 in1024.4 mb 0.00 in0.0 mm 0.00 in0.0 mm 0.00 in0.0 mm
08:04 PM 21.8°F-5.7°C 7.7°F-13.5°C 54% 2.0 mph SSW3.2 kmh SSW 4.0 mph6.4 kmh 30.25 in1024.4 mb 0.00 in0.0 mm 0.00 in0.0 mm 0.00 in0.0 mm
08:09 PM 21.8°F-5.7°C 7.7°F-13.5°C 54% 3.0 mph SW4.8 kmh SW 5.0 mph8.0 kmh 30.25 in1024.4 mb 0.00 in0.0 mm 0.00 in0.0 mm 0.00 in0.0 mm
08:15 PM 21.8°F-5.7°C 7.7°F-13.5°C 54% 2.0 mph S3.2 kmh S 6.0 mph9.7 kmh 30.24 in1024.0 mb 0.00 in0.0 mm 0.00 in0.0 mm 0.00 in0.0 mm
08:19 PM 21.8°F-5.7°C 7.7°F-13.5°C 54% 1.0 mph S1.6 kmh S 3.0 mph4.8 kmh 30.24 in1024.0 mb 0.00 in0.0 mm 0.00 in0.0 mm 0.00 in0.0 mm
08:25 PM 21.8°F-5.7°C 7.7°F-13.5°C 54% 1.0 mph S1.6 kmh S 3.0 mph4.8 kmh 30.24 in1024.0 mb 0.00 in0.0 mm 0.00 in0.0 mm 0.00 in0.0 mm
08:30 PM 21.8°F-5.7°C 7.7°F-13.5°C 54% Calm Calm 5.0 mph8.0 kmh 30.24 in1024.0 mb 0.00 in0.0 mm 0.00 in0.0 mm 0.00 in0.0 mm
08:35 PM 21.8°F-5.7°C 8.1°F-13.3°C 55% 3.0 mph WSW4.8 kmh WSW 3.0 mph4.8 kmh 30.24 in1024.0 mb 0.00 in0.0 mm 0.00 in0.0 mm 0.00 in0.0 mm
08:40 PM 21.8°F-5.7°C 7.7°F-13.5°C 54% 2.0 mph SW3.2 kmh SW 3.0 mph4.8 kmh 30.24 in1024.0 mb 0.00 in0.0 mm 0.00 in0.0 mm 0.00 in0.0 mm
08:45 PM 21.8°F-5.7°C 8.1°F-13.3°C 55% 2.0 mph SSW3.2 kmh SSW 3.0 mph4.8 kmh 30.24 in1024.0 mb 0.00 in0.0 mm 0.00 in0.0 mm 0.00 in0.0 mm
08:50 PM 21.9°F-5.6°C 8.2°F-13.2°C 55% 3.0 mph SW4.8 kmh SW 4.0 mph6.4 kmh 30.24 in1024.0 mb 0.00 in0.0 mm 0.00 in0.0 mm 0.00 in0.0 mm
08:55 PM 21.9°F-5.6°C 8.2°F-13.2°C 55% 2.0 mph SW3.2 kmh SW 4.0 mph6.4 kmh 30.25 in1024.4 mb 0.00 in0.0 mm 0.00 in0.0 mm 0.00 in0.0 mm
09:00 PM 21.9°F-5.6°C 7.8°F-13.4°C 54% Calm Calm 2.0 mph3.2 kmh 30.25 in1024.4 mb 0.00 in0.0 mm 0.00 in0.0 mm 0.00 in0.0 mm
09:05 PM 22.0°F-5.6°C 8.3°F-13.2°C 55% 1.0 mph SW1.6 kmh SW 4.0 mph6.4 kmh 30.25 in1024.4 mb 0.00 in0.0 mm 0.00 in0.0 mm 0.00 in0.0 mm
09:10 PM 22.0°F-5.6°C 9.1°F-12.7°C 57% Calm Calm -- 30.25 in1024.4 mb 0.00 in0.0 mm 0.00 in0.0 mm 0.00 in0.0 mm
09:15 PM 22.1°F-5.5°C 8.4°F-13.1°C 55% Calm Calm 1.0 mph1.6 kmh 30.25 in1024.4 mb 0.00 in0.0 mm 0.00 in0.0 mm 0.00 in0.0 mm
09:20 PM 22.1°F-5.5°C 8.4°F-13.1°C 55% Calm Calm -- 30.25 in1024.4 mb 0.00 in0.0 mm 0.00 in0.0 mm 0.00 in0.0 mm
09:25 PM 22.0°F-5.6°C 8.3°F-13.2°C 55% Calm Calm 4.0 mph6.4 kmh 30.25 in1024.4 mb 0.00 in0.0 mm 0.00 in0.0 mm 0.00 in0.0 mm
09:30 PM 22.0°F-5.6°C 8.3°F-13.2°C 55% Calm Calm -- 30.25 in1024.4 mb 0.00 in0.0 mm 0.00 in0.0 mm 0.00 in0.0 mm
09:34 PM 22.1°F-5.5°C 8.8°F-12.9°C 56% Calm Calm -- 30.26 in1024.7 mb 0.00 in0.0 mm 0.00 in0.0 mm 0.00 in0.0 mm
09:39 PM 22.1°F-5.5°C 9.2°F-12.7°C 57% Calm Calm -- 30.26 in1024.7 mb 0.00 in0.0 mm 0.00 in0.0 mm 0.00 in0.0 mm
09:45 PM 22.2°F-5.4°C 9.3°F-12.6°C 57% Calm Calm -- 30.26 in1024.7 mb 0.00 in0.0 mm 0.00 in0.0 mm 0.00 in0.0 mm
09:50 PM 22.2°F-5.4°C 9.3°F-12.6°C 57% Calm Calm 3.0 mph4.8 kmh 30.26 in1024.7 mb 0.00 in0.0 mm 0.00 in0.0 mm 0.00 in0.0 mm
09:55 PM 22.2°F-5.4°C 9.3°F-12.6°C 57% 2.0 mph SW3.2 kmh SW 3.0 mph4.8 kmh 30.26 in1024.7 mb 0.00 in0.0 mm 0.00 in0.0 mm 0.00 in0.0 mm
10:00 PM 22.2°F-5.4°C 8.9°F-12.8°C 56% 1.0 mph WSW1.6 kmh WSW 4.0 mph6.4 kmh 30.25 in1024.4 mb 0.00 in0.0 mm 0.00 in0.0 mm 0.00 in0.0 mm
10:05 PM 22.2°F-5.4°C 8.9°F-12.8°C 56% 3.0 mph SW4.8 kmh SW 4.0 mph6.4 kmh 30.25 in1024.4 mb 0.00 in0.0 mm 0.00 in0.0 mm 0.00 in0.0 mm
10:10 PM 22.2°F-5.4°C 8.9°F-12.8°C 56% 5.0 mph SW8.0 kmh SW 5.0 mph8.0 kmh 30.25 in1024.4 mb 0.00 in0.0 mm 0.00 in0.0 mm 0.00 in0.0 mm
10:15 PM 22.2°F-5.4°C 8.9°F-12.8°C 56% 3.0 mph SW4.8 kmh SW 5.0 mph8.0 kmh 30.25 in1024.4 mb 0.00 in0.0 mm 0.00 in0.0 mm 0.00 in0.0 mm
10:20 PM 22.2°F-5.4°C 8.9°F-12.8°C 56% 1.0 mph SW1.6 kmh SW 4.0 mph6.4 kmh 30.25 in1024.4 mb 0.00 in0.0 mm 0.00 in0.0 mm 0.00 in0.0 mm
10:24 PM 22.3°F-5.4°C 9.4°F-12.6°C 57% 3.0 mph SW4.8 kmh SW 4.0 mph6.4 kmh 30.25 in1024.4 mb 0.00 in0.0 mm 0.00 in0.0 mm 0.00 in0.0 mm
10:30 PM 22.3°F-5.4°C 9.8°F-12.3°C 58% 1.0 mph SW1.6 kmh SW 4.0 mph6.4 kmh 30.25 in1024.4 mb 0.00 in0.0 mm 0.00 in0.0 mm 0.00 in0.0 mm
10:35 PM 22.3°F-5.4°C 9.8°F-12.3°C 58% 3.0 mph SW4.8 kmh SW 7.0 mph11.3 kmh 30.25 in1024.4 mb 0.00 in0.0 mm 0.00 in0.0 mm 0.00 in0.0 mm
10:40 PM 22.4°F-5.3°C 9.9°F-12.3°C 58% 5.0 mph SW8.0 kmh SW 8.0 mph12.9 kmh 30.25 in1024.4 mb 0.00 in0.0 mm 0.00 in0.0 mm 0.00 in0.0 mm
10:45 PM 22.5°F-5.3°C 10.4°F-12.0°C 59% 6.0 mph WSW9.7 kmh WSW 7.0 mph11.3 kmh 30.25 in1024.4 mb 0.00 in0.0 mm 0.00 in0.0 mm 0.00 in0.0 mm
10:49 PM 22.5°F-5.3°C 10.7°F-11.8°C 60% 2.0 mph SW3.2 kmh SW 7.0 mph11.3 kmh 30.24 in1024.0 mb 0.00 in0.0 mm 0.00 in0.0 mm 0.00 in0.0 mm
10:55 PM 22.6°F-5.2°C 11.2°F-11.6°C 61% 5.0 mph SW8.0 kmh SW 7.0 mph11.3 kmh 30.24 in1024.0 mb 0.00 in0.0 mm 0.00 in0.0 mm 0.00 in0.0 mm
11:00 PM 22.6°F-5.2°C 11.6°F-11.3°C 62% 3.0 mph SW4.8 kmh SW 13.0 mph20.9 kmh 30.24 in1024.0 mb 0.00 in0.0 mm 0.00 in0.0 mm 0.00 in0.0 mm
11:05 PM 22.7°F-5.2°C 12.0°F-11.1°C 63% 7.0 mph SW11.3 kmh SW 11.0 mph17.7 kmh 30.24 in1024.0 mb 0.00 in0.0 mm 0.00 in0.0 mm 0.00 in0.0 mm
11:09 PM 22.6°F-5.2°C 12.3°F-10.9°C 64% 4.0 mph WSW6.4 kmh WSW 10.0 mph16.1 kmh 30.24 in1024.0 mb 0.00 in0.0 mm 0.00 in0.0 mm 0.00 in0.0 mm
11:14 PM 22.6°F-5.2°C 12.6°F-10.8°C 65% 3.0 mph SW4.8 kmh SW 6.0 mph9.7 kmh 30.24 in1024.0 mb 0.00 in0.0 mm 0.00 in0.0 mm 0.00 in0.0 mm
11:19 PM 22.5°F-5.3°C 12.5°F-10.8°C 65% 5.0 mph SW8.0 kmh SW 8.0 mph12.9 kmh 30.24 in1024.0 mb 0.00 in0.0 mm 0.00 in0.0 mm 0.00 in0.0 mm
11:25 PM 22.5°F-5.3°C 12.5°F-10.8°C 65% 2.0 mph SW3.2 kmh SW 7.0 mph11.3 kmh 30.24 in1024.0 mb 0.00 in0.0 mm 0.00 in0.0 mm 0.00 in0.0 mm
11:30 PM 22.4°F-5.3°C 12.4°F-10.9°C 65% 3.0 mph W4.8 kmh W 8.0 mph12.9 kmh 30.24 in1024.0 mb 0.00 in0.0 mm 0.00 in0.0 mm 0.00 in0.0 mm
11:35 PM 22.4°F-5.3°C 12.4°F-10.9°C 65% 3.0 mph SW4.8 kmh SW 6.0 mph9.7 kmh 30.24 in1024.0 mb 0.00 in0.0 mm 0.00 in0.0 mm 0.00 in0.0 mm
11:40 PM 22.4°F-5.3°C 12.8°F-10.7°C 66% 4.0 mph SW6.4 kmh SW 7.0 mph11.3 kmh 30.24 in1024.0 mb 0.00 in0.0 mm 0.00 in0.0 mm 0.00 in0.0 mm
11:45 PM 22.5°F-5.3°C 12.9°F-10.6°C 66% 2.0 mph SW3.2 kmh SW 7.0 mph11.3 kmh 30.24 in1024.0 mb 0.00 in0.0 mm 0.00 in0.0 mm 0.00 in0.0 mm
11:50 PM 22.6°F-5.2°C 13.0°F-10.6°C 66% 4.0 mph SW6.4 kmh SW 7.0 mph11.3 kmh 30.23 in1023.7 mb 0.00 in0.0 mm 0.00 in0.0 mm 0.00 in0.0 mm
11:55 PM 22.6°F-5.2°C 13.3°F-10.4°C 67% 1.0 mph SW1.6 kmh SW 4.0 mph6.4 kmh 30.23 in1023.7 mb 0.00 in0.0 mm 0.00 in0.0 mm 0.00 in0.0 mm
11:59 PM 22.6°F-5.2°C 13.3°F-10.4°C 67% 2.0 mph SW3.2 kmh SW 9.0 mph14.5 kmh 30.23 in1023.7 mb 0.00 in0.0 mm 0.00 in0.0 mm 0.00 in0.0 mm